sensor_id;sensor_type;location;lat;lon;timestamp;pressure;altitude;pressure_sealevel;temperature;humidity
77587;BME280;66744;49.716;17.158;2023-12-07T00:02:21;99090.78;;;1.51;77.32
77587;BME280;66744;49.716;17.158;2023-12-07T00:05:22;99081.13;;;1.54;77.55
77587;BME280;66744;49.716;17.158;2023-12-07T00:08:23;99088.84;;;1.55;78.22
77587;BME280;66744;49.716;17.158;2023-12-07T00:11:24;99084.56;;;1.51;77.13
77587;BME280;66744;49.716;17.158;2023-12-07T00:14:25;99081.88;;;1.51;77.96
77587;BME280;66744;49.716;17.158;2023-12-07T00:17:27;99083.41;;;1.52;77.40
77587;BME280;66744;49.716;17.158;2023-12-07T00:20:28;99083.09;;;1.57;76.88
77587;BME280;66744;49.716;17.158;2023-12-07T00:23:30;99076.09;;;1.56;77.15
77587;BME280;66744;49.716;17.158;2023-12-07T00:26:31;99085.00;;;1.56;77.02
77587;BME280;66744;49.716;17.158;2023-12-07T00:29:32;99080.75;;;1.55;77.75
77587;BME280;66744;49.716;17.158;2023-12-07T00:32:33;99088.47;;;1.53;78.05
77587;BME280;66744;49.716;17.158;2023-12-07T00:35:34;99082.66;;;1.51;77.91
77587;BME280;66744;49.716;17.158;2023-12-07T00:38:36;99090.00;;;1.51;77.08
77587;BME280;66744;49.716;17.158;2023-12-07T00:41:37;99099.66;;;1.52;77.71
77587;BME280;66744;49.716;17.158;2023-12-07T00:44:42;99094.22;;;1.52;78.56
77587;BME280;66744;49.716;17.158;2023-12-07T00:47:43;99097.72;;;1.52;77.96
77587;BME280;66744;49.716;17.158;2023-12-07T00:50:44;99104.72;;;1.53;77.60
77587;BME280;66744;49.716;17.158;2023-12-07T00:53:45;99100.84;;;1.54;77.44
77587;BME280;66744;49.716;17.158;2023-12-07T00:56:46;99104.31;;;1.55;78.11
77587;BME280;66744;49.716;17.158;2023-12-07T00:59:47;99105.09;;;1.55;77.64
77587;BME280;66744;49.716;17.158;2023-12-07T01:02:48;99104.72;;;1.53;78.62
77587;BME280;66744;49.716;17.158;2023-12-07T01:05:49;99101.63;;;1.55;77.14
77587;BME280;66744;49.716;17.158;2023-12-07T01:08:51;99099.66;;;1.52;78.19
77587;BME280;66744;49.716;17.158;2023-12-07T01:11:52;99102.78;;;1.54;78.29
77587;BME280;66744;49.716;17.158;2023-12-07T01:14:53;99103.97;;;1.56;78.26
77587;BME280;66744;49.716;17.158;2023-12-07T01:17:54;99110.91;;;1.54;78.08
77587;BME280;66744;49.716;17.158;2023-12-07T01:20:55;99112.00;;;1.49;77.79
77587;BME280;66744;49.716;17.158;2023-12-07T01:23:56;99112.00;;;1.49;77.23
77587;BME280;66744;49.716;17.158;2023-12-07T01:26:59;99120.56;;;1.51;78.55
77587;BME280;66744;49.716;17.158;2023-12-07T01:30:00;99119.03;;;1.54;78.49
77587;BME280;66744;49.716;17.158;2023-12-07T01:33:03;99119.38;;;1.52;77.85
77587;BME280;66744;49.716;17.158;2023-12-07T01:36:05;99119.78;;;1.51;78.79
77587;BME280;66744;49.716;17.158;2023-12-07T01:39:07;99120.50;;;1.48;77.97
77587;BME280;66744;49.716;17.158;2023-12-07T01:42:09;99118.19;;;1.50;78.40
77587;BME280;66744;49.716;17.158;2023-12-07T01:45:12;99127.09;;;1.50;78.64
77587;BME280;66744;49.716;17.158;2023-12-07T01:48:13;99128.28;;;1.53;77.85
77587;BME280;66744;49.716;17.158;2023-12-07T01:51:15;99131.00;;;1.53;78.30
77587;BME280;66744;49.716;17.158;2023-12-07T01:54:17;99136.06;;;1.54;77.48
77587;BME280;66744;49.716;17.158;2023-12-07T01:57:19;99130.63;;;1.54;78.45
77587;BME280;66744;49.716;17.158;2023-12-07T02:04:45;99132.16;;;1.55;78.10
77587;BME280;66744;49.716;17.158;2023-12-07T02:07:47;99137.19;;;1.53;77.00
77587;BME280;66744;49.716;17.158;2023-12-07T02:10:48;99132.13;;;1.52;77.16
77587;BME280;66744;49.716;17.158;2023-12-07T02:13:49;99130.63;;;1.54;78.45
77587;BME280;66744;49.716;17.158;2023-12-07T02:16:57;99129.47;;;1.55;77.17
77587;BME280;66744;49.716;17.158;2023-12-07T02:23:22;99121.72;;;1.54;77.79
77587;BME280;66744;49.716;17.158;2023-12-07T02:26:32;99120.94;;;1.53;77.63
77587;BME280;66744;49.716;17.158;2023-12-07T02:29:33;99123.66;;;1.53;77.33
77587;BME280;66744;49.716;17.158;2023-12-07T02:32:38;99128.69;;;1.55;77.18
77587;BME280;66744;49.716;17.158;2023-12-07T02:35:40;99120.56;;;1.55;77.71
77587;BME280;66744;49.716;17.158;2023-12-07T02:38:42;99118.97;;;1.50;77.49
77587;BME280;66744;49.716;17.158;2023-12-07T02:41:45;99127.06;;;1.47;78.18
77587;BME280;66744;49.716;17.158;2023-12-07T02:44:48;99118.56;;;1.45;77.51
77587;BME280;66744;49.716;17.158;2023-12-07T02:47:50;99127.06;;;1.47;78.53
77587;BME280;66744;49.716;17.158;2023-12-07T02:50:51;99124.34;;;1.47;78.10
77587;BME280;66744;49.716;17.158;2023-12-07T02:53:52;99123.53;;;1.43;77.54
77587;BME280;66744;49.716;17.158;2023-12-07T02:56:53;99128.94;;;1.43;78.25
77587;BME280;66744;49.716;17.158;2023-12-07T02:59:55;99126.97;;;1.40;77.32
77587;BME280;66744;49.716;17.158;2023-12-07T03:02:56;99130.06;;;1.38;78.49
77587;BME280;66744;49.716;17.158;2023-12-07T03:05:58;99127.72;;;1.37;78.21
77587;BME280;66744;49.716;17.158;2023-12-07T03:08:59;99130.44;;;1.37;78.65
77587;BME280;66744;49.716;17.158;2023-12-07T03:12:00;99128.91;;;1.36;77.64
77587;BME280;66744;49.716;17.158;2023-12-07T03:15:03;99127.72;;;1.33;78.11
77587;BME280;66744;49.716;17.158;2023-12-07T03:18:05;99131.16;;;1.34;78.54
77587;BME280;66744;49.716;17.158;2023-12-07T03:21:07;99129.63;;;1.33;77.61
77587;BME280;66744;49.716;17.158;2023-12-07T03:24:08;99129.22;;;1.31;78.12
77587;BME280;66744;49.716;17.158;2023-12-07T03:27:10;99136.94;;;1.29;78.31
77587;BME280;66744;49.716;17.158;2023-12-07T03:30:11;99133.47;;;1.32;78.14
77587;BME280;66744;49.716;17.158;2023-12-07T03:33:12;99135.00;;;1.29;78.29
77587;BME280;66744;49.716;17.158;2023-12-07T03:36:14;99138.84;;;1.28;77.59
77587;BME280;66744;49.716;17.158;2023-12-07T03:39:16;99131.50;;;1.29;78.95
77587;BME280;66744;49.716;17.158;2023-12-07T03:42:19;99144.69;;;1.30;78.03
77587;BME280;66744;49.716;17.158;2023-12-07T03:45:20;99150.47;;;1.29;78.30
77587;BME280;66744;49.716;17.158;2023-12-07T03:48:21;99150.50;;;1.32;77.50
77587;BME280;66744;49.716;17.158;2023-12-07T03:51:22;99154.78;;;1.33;76.99
77587;BME280;66744;49.716;17.158;2023-12-07T03:54:24;99150.53;;;1.36;77.45
77587;BME280;66744;49.716;17.158;2023-12-07T03:57:25;99161.78;;;1.38;76.58
77587;BME280;66744;49.716;17.158;2023-12-07T04:00:26;99165.22;;;1.35;76.81
77587;BME280;66744;49.716;17.158;2023-12-07T04:03:27;99169.84;;;1.34;76.75
77587;BME280;66744;49.716;17.158;2023-12-07T04:06:28;99171.38;;;1.32;78.02
77587;BME280;66744;49.716;17.158;2023-12-07T04:09:29;99179.03;;;1.26;78.01
77587;BME280;66744;49.716;17.158;2023-12-07T04:12:32;99175.94;;;1.24;77.78
77587;BME280;66744;49.716;17.158;2023-12-07T04:15:33;99180.56;;;1.24;77.59
77587;BME280;66744;49.716;17.158;2023-12-07T04:18:34;99173.97;;;1.21;78.78
77587;BME280;66744;49.716;17.158;2023-12-07T04:21:35;99178.53;;;1.17;78.02
77587;BME280;66744;49.716;17.158;2023-12-07T04:24:36;99181.66;;;1.19;77.91
77587;BME280;66744;49.716;17.158;2023-12-07T04:27:37;99181.63;;;1.16;78.95
77587;BME280;66744;49.716;17.158;2023-12-07T04:30:38;99190.00;;;1.07;78.52
77587;BME280;66744;49.716;17.158;2023-12-07T04:33:39;99192.34;;;1.08;78.38
77587;BME280;66744;49.716;17.158;2023-12-07T04:36:40;99198.94;;;1.11;79.35
77587;BME280;66744;49.716;17.158;2023-12-07T04:39:42;99192.69;;;1.07;79.51
77587;BME280;66744;49.716;17.158;2023-12-07T04:42:43;99199.28;;;1.06;79.29
77587;BME280;66744;49.716;17.158;2023-12-07T04:45:44;99208.97;;;1.10;78.84
77587;BME280;66744;49.716;17.158;2023-12-07T04:48:45;99206.72;;;1.13;79.24
77587;BME280;66744;49.716;17.158;2023-12-07T04:51:46;99209.91;;;1.22;79.32
77587;BME280;66744;49.716;17.158;2023-12-07T04:54:47;99224.25;;;1.26;79.40
77587;BME280;66744;49.716;17.158;2023-12-07T04:57:50;99231.69;;;1.32;77.72
77587;BME280;66744;49.716;17.158;2023-12-07T05:00:51;99226.31;;;1.36;78.61
77587;BME280;66744;49.716;17.158;2023-12-07T05:03:52;99237.94;;;1.36;78.44
77587;BME280;66744;49.716;17.158;2023-12-07T05:06:53;99242.19;;;1.37;77.73
77587;BME280;66744;49.716;17.158;2023-12-07T05:09:54;99247.22;;;1.39;78.46
77587;BME280;66744;49.716;17.158;2023-12-07T05:12:55;99243.41;;;1.43;77.69
77587;BME280;66744;49.716;17.158;2023-12-07T05:15:57;99256.59;;;1.45;78.67
77587;BME280;66744;49.716;17.158;2023-12-07T05:18:59;99257.78;;;1.47;77.61
77587;BME280;66744;49.716;17.158;2023-12-07T05:22:01;99265.09;;;1.47;77.37
77587;BME280;66744;49.716;17.158;2023-12-07T05:25:03;99272.13;;;1.51;77.21
77587;BME280;66744;49.716;17.158;2023-12-07T05:28:05;99277.97;;;1.53;77.99
77587;BME280;66744;49.716;17.158;2023-12-07T05:31:06;99278.00;;;1.57;78.39
77587;BME280;66744;49.716;17.158;2023-12-07T05:34:07;99274.13;;;1.58;79.10
77587;BME280;66744;49.716;17.158;2023-12-07T05:37:08;99274.56;;;1.60;78.05
77587;BME280;66744;49.716;17.158;2023-12-07T05:40:10;99286.19;;;1.64;79.14
77587;BME280;66744;49.716;17.158;2023-12-07T05:43:13;99281.94;;;1.63;78.66
77587;BME280;66744;49.716;17.158;2023-12-07T05:46:14;99287.38;;;1.66;77.92
77587;BME280;66744;49.716;17.158;2023-12-07T05:49:17;99280.88;;;1.71;77.79
77587;BME280;66744;49.716;17.158;2023-12-07T05:52:18;99283.97;;;1.73;79.22
77587;BME280;66744;49.716;17.158;2023-12-07T05:55:19;99284.41;;;1.75;78.96
77587;BME280;66744;49.716;17.158;2023-12-07T05:58:21;99294.84;;;1.77;78.78
77587;BME280;66744;49.716;17.158;2023-12-07T06:01:22;99293.72;;;1.78;78.92
77587;BME280;66744;49.716;17.158;2023-12-07T06:04:25;99289.50;;;1.80;79.54
77587;BME280;66744;49.716;17.158;2023-12-07T06:07:29;99292.25;;;1.84;79.38
77587;BME280;66744;49.716;17.158;2023-12-07T06:10:30;99303.88;;;1.88;80.19
77587;BME280;66744;49.716;17.158;2023-12-07T06:13:31;99305.50;;;1.92;79.72
77587;BME280;66744;49.716;17.158;2023-12-07T06:16:33;99309.78;;;1.97;80.46
77587;BME280;66744;49.716;17.158;2023-12-07T06:19:34;99299.78;;;2.01;79.82
77587;BME280;66744;49.716;17.158;2023-12-07T06:22:35;99304.44;;;2.04;79.43
77587;BME280;66744;49.716;17.158;2023-12-07T06:25:37;99307.56;;;2.06;79.82
77587;BME280;66744;49.716;17.158;2023-12-07T06:28:38;99305.69;;;2.10;79.44
77587;BME280;66744;49.716;17.158;2023-12-07T06:31:43;99310.72;;;2.11;79.51
77587;BME280;66744;49.716;17.158;2023-12-07T06:34:44;99316.56;;;2.13;79.73
77587;BME280;66744;49.716;17.158;2023-12-07T06:37:46;99324.69;;;2.13;80.01
77587;BME280;66744;49.716;17.158;2023-12-07T06:40:47;99330.13;;;2.17;79.27
77587;BME280;66744;49.716;17.158;2023-12-07T06:43:48;99333.63;;;2.17;80.19
77587;BME280;66744;49.716;17.158;2023-12-07T06:46:50;99335.59;;;2.20;79.47
77587;BME280;66744;49.716;17.158;2023-12-07T06:49:51;99342.97;;;2.23;79.14
77587;BME280;66744;49.716;17.158;2023-12-07T06:52:52;99345.69;;;2.23;80.53
77587;BME280;66744;49.716;17.158;2023-12-07T06:55:53;99342.22;;;2.27;79.48
77587;BME280;66744;49.716;17.158;2023-12-07T06:58:54;99346.91;;;2.30;79.33
77587;BME280;66744;49.716;17.158;2023-12-07T07:01:55;99346.91;;;2.30;79.99
77587;BME280;66744;49.716;17.158;2023-12-07T07:04:57;99352.75;;;2.32;79.59
77587;BME280;66744;49.716;17.158;2023-12-07T07:07:58;99342.31;;;2.34;79.71
77587;BME280;66744;49.716;17.158;2023-12-07T07:10:59;99353.56;;;2.36;79.93
77587;BME280;66744;49.716;17.158;2023-12-07T07:14:01;99358.22;;;2.39;79.53
77587;BME280;66744;49.716;17.158;2023-12-07T07:17:03;99357.09;;;2.40;79.57
77587;BME280;66744;49.716;17.158;2023-12-07T07:20:05;99355.16;;;2.40;79.68
77587;BME280;66744;49.716;17.158;2023-12-07T07:23:07;99363.69;;;2.42;79.25
77587;BME280;66744;49.716;17.158;2023-12-07T07:26:09;99361.78;;;2.43;79.74
77587;BME280;66744;49.716;17.158;2023-12-07T07:29:10;99359.47;;;2.45;79.85
77587;BME280;66744;49.716;17.158;2023-12-07T07:32:11;99360.63;;;2.47;79.19
77587;BME280;66744;49.716;17.158;2023-12-07T07:35:12;99351.72;;;2.47;78.55
77587;BME280;66744;49.716;17.158;2023-12-07T07:38:14;99363.75;;;2.46;78.01
77587;BME280;66744;49.716;17.158;2023-12-07T07:41:16;99366.84;;;2.48;79.25
77587;BME280;66744;49.716;17.158;2023-12-07T07:44:17;99376.16;;;2.50;78.43
77587;BME280;66744;49.716;17.158;2023-12-07T07:47:18;99372.34;;;2.55;78.05
77587;BME280;66744;49.716;17.158;2023-12-07T07:50:19;99370.78;;;2.54;78.10
77587;BME280;66744;49.716;17.158;2023-12-07T07:53:20;99365.00;;;2.55;78.17
77587;BME280;66744;49.716;17.158;2023-12-07T07:56:22;99374.31;;;2.58;77.78
77587;BME280;66744;49.716;17.158;2023-12-07T07:59:23;99365.75;;;2.56;78.50
77587;BME280;66744;49.716;17.158;2023-12-07T08:02:24;99363.47;;;2.58;78.70
77587;BME280;66744;49.716;17.158;2023-12-07T08:05:25;99361.56;;;2.62;77.36
77587;BME280;66744;49.716;17.158;2023-12-07T08:08:26;99368.59;;;2.66;77.92
77587;BME280;66744;49.716;17.158;2023-12-07T08:11:27;99371.34;;;2.70;78.33
77587;BME280;66744;49.716;17.158;2023-12-07T08:14:28;99362.03;;;2.71;77.26
77587;BME280;66744;49.716;17.158;2023-12-07T08:17:29;99370.59;;;2.73;78.04
77587;BME280;66744;49.716;17.158;2023-12-07T08:20:31;99377.56;;;2.74;78.04
77587;BME280;66744;49.716;17.158;2023-12-07T08:23:34;99377.19;;;2.75;77.64
77587;BME280;66744;49.716;17.158;2023-12-07T08:26:36;99383.41;;;2.79;77.56
77587;BME280;66744;49.716;17.158;2023-12-07T08:29:37;99384.59;;;2.78;77.41
77587;BME280;66744;49.716;17.158;2023-12-07T08:32:39;99386.91;;;2.80;77.80
77587;BME280;66744;49.716;17.158;2023-12-07T08:35:40;99391.59;;;2.83;76.99
77587;BME280;66744;49.716;17.158;2023-12-07T08:38:41;99386.16;;;2.83;77.52
77587;BME280;66744;49.716;17.158;2023-12-07T08:41:43;99388.50;;;2.85;77.49
77587;BME280;66744;49.716;17.158;2023-12-07T08:44:44;99399.00;;;2.90;76.71
77587;BME280;66744;49.716;17.158;2023-12-07T08:47:45;99397.13;;;2.94;76.69
77587;BME280;66744;49.716;17.158;2023-12-07T08:50:46;99395.16;;;2.94;76.92
77587;BME280;66744;49.716;17.158;2023-12-07T08:53:48;99404.91;;;2.99;77.24
77587;BME280;66744;49.716;17.158;2023-12-07T08:56:49;99411.13;;;2.99;76.65
77587;BME280;66744;49.716;17.158;2023-12-07T08:59:50;99407.22;;;3.00;77.76
77587;BME280;66744;49.716;17.158;2023-12-07T09:02:51;99405.34;;;3.04;77.12
77587;BME280;66744;49.716;17.158;2023-12-07T09:05:54;99403.41;;;3.05;77.16
77587;BME280;66744;49.716;17.158;2023-12-07T09:08:55;99409.66;;;3.09;77.13
77587;BME280;66744;49.716;17.158;2023-12-07T09:11:56;99405.41;;;3.11;77.37
77587;BME280;66744;49.716;17.158;2023-12-07T09:14:57;99417.09;;;3.19;76.94
77587;BME280;66744;49.716;17.158;2023-12-07T09:17:58;99419.78;;;3.15;77.10
77587;BME280;66744;49.716;17.158;2023-12-07T09:20:59;99425.59;;;3.14;76.97
77587;BME280;66744;49.716;17.158;2023-12-07T09:24:02;99418.22;;;3.14;76.46
77587;BME280;66744;49.716;17.158;2023-12-07T09:27:05;99419.38;;;3.13;76.30
77587;BME280;66744;49.716;17.158;2023-12-07T09:30:08;99421.38;;;3.20;76.75
77587;BME280;66744;49.716;17.158;2023-12-07T09:33:12;99419.88;;;3.26;76.35
77587;BME280;66744;49.716;17.158;2023-12-07T09:36:16;99413.25;;;3.27;76.36
77587;BME280;66744;49.716;17.158;2023-12-07T09:39:19;99417.56;;;3.28;76.36
77587;BME280;66744;49.716;17.158;2023-12-07T09:42:20;99414.06;;;3.27;76.39
77587;BME280;66744;49.716;17.158;2023-12-07T09:45:21;99411.34;;;3.27;76.71
77587;BME280;66744;49.716;17.158;2023-12-07T09:48:23;99409.03;;;3.29;76.30
77587;BME280;66744;49.716;17.158;2023-12-07T09:51:25;99407.88;;;3.30;75.74
77587;BME280;66744;49.716;17.158;2023-12-07T09:54:29;99404.78;;;3.32;75.66
77587;BME280;66744;49.716;17.158;2023-12-07T09:57:31;99408.28;;;3.32;76.03
77587;BME280;66744;49.716;17.158;2023-12-07T10:00:34;99395.91;;;3.35;76.24
77587;BME280;66744;49.716;17.158;2023-12-07T10:03:35;99393.22;;;3.42;75.72
77587;BME280;66744;49.716;17.158;2023-12-07T10:06:43;99397.13;;;3.48;75.63
77587;BME280;66744;49.716;17.158;2023-12-07T10:09:46;99392.13;;;3.50;76.17
77587;BME280;66744;49.716;17.158;2023-12-07T10:12:59;99400.63;;;3.49;75.33
77587;BME280;66744;49.716;17.158;2023-12-07T10:16:11;99402.56;;;3.48;75.12
77587;BME280;66744;49.716;17.158;2023-12-07T10:19:16;99395.19;;;3.49;74.94
77587;BME280;66744;49.716;17.158;2023-12-07T10:22:22;99393.66;;;3.51;75.31
77587;BME280;66744;49.716;17.158;2023-12-07T10:25:23;99395.59;;;3.51;74.58
77587;BME280;66744;49.716;17.158;2023-12-07T10:28:25;99395.94;;;3.46;74.70
77587;BME280;66744;49.716;17.158;2023-12-07T10:31:26;99398.63;;;3.42;74.75
77587;BME280;66744;49.716;17.158;2023-12-07T10:34:28;99401.75;;;3.41;74.84
77587;BME280;66744;49.716;17.158;2023-12-07T10:37:29;99400.56;;;3.38;74.88
77587;BME280;66744;49.716;17.158;2023-12-07T10:40:30;99400.97;;;3.40;74.73
77587;BME280;66744;49.716;17.158;2023-12-07T10:43:36;99401.34;;;3.42;75.20
77587;BME280;66744;49.716;17.158;2023-12-07T10:46:39;99399.06;;;3.44;74.45
77587;BME280;66744;49.716;17.158;2023-12-07T10:49:43;99396.34;;;3.44;74.34
77587;BME280;66744;49.716;17.158;2023-12-07T10:52:54;99395.97;;;3.49;75.11
77587;BME280;66744;49.716;17.158;2023-12-07T10:56:01;99384.34;;;3.52;74.51
77587;BME280;66744;49.716;17.158;2023-12-07T10:59:03;99390.94;;;3.51;74.21
77587;BME280;66744;49.716;17.158;2023-12-07T11:02:05;99397.53;;;3.50;74.27
77587;BME280;66744;49.716;17.158;2023-12-07T11:05:08;99405.69;;;3.54;74.08
77587;BME280;66744;49.716;17.158;2023-12-07T11:08:18;99392.91;;;3.54;74.93
77587;BME280;66744;49.716;17.158;2023-12-07T11:14:41;99387.13;;;3.63;74.18
77587;BME280;66744;49.716;17.158;2023-12-07T11:17:53;99393.31;;;3.60;74.39
77587;BME280;66744;49.716;17.158;2023-12-07T11:20:55;99393.31;;;3.60;74.29
77587;BME280;66744;49.716;17.158;2023-12-07T11:24:00;99389.06;;;3.62;73.94
77587;BME280;66744;49.716;17.158;2023-12-07T11:27:04;99401.88;;;3.62;73.97
77587;BME280;66744;49.716;17.158;2023-12-07T11:30:06;99401.50;;;3.63;74.70
77587;BME280;66744;49.716;17.158;2023-12-07T11:33:08;99396.84;;;3.64;74.15
77587;BME280;66744;49.716;17.158;2023-12-07T11:36:11;99394.13;;;3.64;74.26
77587;BME280;66744;49.716;17.158;2023-12-07T11:42:16;99392.22;;;3.68;74.52
77587;BME280;66744;49.716;17.158;2023-12-07T11:45:57;99397.25;;;3.69;74.07
77587;BME280;66744;49.716;17.158;2023-12-07T11:48:58;99391.03;;;3.69;73.68
77587;BME280;66744;49.716;17.158;2023-12-07T11:52:00;99385.22;;;3.67;74.52
77587;BME280;66744;49.716;17.158;2023-12-07T11:55:02;99388.34;;;3.72;73.81
77587;BME280;66744;49.716;17.158;2023-12-07T11:58:04;99383.69;;;3.73;74.27
77587;BME280;66744;49.716;17.158;2023-12-07T12:01:06;99394.19;;;3.78;73.81
77587;BME280;66744;49.716;17.158;2023-12-07T12:04:10;99387.63;;;3.79;73.47
77587;BME280;66744;49.716;17.158;2023-12-07T12:07:11;99390.34;;;3.79;73.79
77587;BME280;66744;49.716;17.158;2023-12-07T12:10:12;99386.47;;;3.80;73.66
77587;BME280;66744;49.716;17.158;2023-12-07T12:13:14;99386.81;;;3.75;73.25
77587;BME280;66744;49.716;17.158;2023-12-07T12:16:15;99390.28;;;3.72;74.24
77587;BME280;66744;49.716;17.158;2023-12-07T12:19:18;99390.28;;;3.72;74.56
77587;BME280;66744;49.716;17.158;2023-12-07T12:22:19;99401.16;;;3.72;73.82
77587;BME280;66744;49.716;17.158;2023-12-07T12:25:26;99396.13;;;3.74;74.07
77587;BME280;66744;49.716;17.158;2023-12-07T12:28:30;99401.56;;;3.74;73.41
77587;BME280;66744;49.716;17.158;2023-12-07T12:31:33;99405.03;;;3.74;73.89
77587;BME280;66744;49.716;17.158;2023-12-07T12:34:35;99413.94;;;3.71;73.84
77587;BME280;66744;49.716;17.158;2023-12-07T12:37:39;99408.13;;;3.69;73.83
77587;BME280;66744;49.716;17.158;2023-12-07T12:40:40;99407.75;;;3.71;74.11
77587;BME280;66744;49.716;17.158;2023-12-07T12:43:42;99409.69;;;3.70;74.29
77587;BME280;66744;49.716;17.158;2023-12-07T12:46:45;99409.69;;;3.70;74.00
77587;BME280;66744;49.716;17.158;2023-12-07T12:49:47;99423.66;;;3.69;74.10
77587;BME280;66744;49.716;17.158;2023-12-07T12:52:48;99429.06;;;3.69;74.53
77587;BME280;66744;49.716;17.158;2023-12-07T12:55:49;99430.25;;;3.71;74.04
77587;BME280;66744;49.716;17.158;2023-12-07T12:58:52;99427.56;;;3.75;74.33
77587;BME280;66744;49.716;17.158;2023-12-07T13:01:53;99422.13;;;3.75;74.00
77587;BME280;66744;49.716;17.158;2023-12-07T13:04:54;99421.38;;;3.78;74.23
77587;BME280;66744;49.716;17.158;2023-12-07T13:07:56;99418.28;;;3.79;73.98
77587;BME280;66744;49.716;17.158;2023-12-07T13:10:58;99423.31;;;3.77;73.63
77587;BME280;66744;49.716;17.158;2023-12-07T13:13:59;99419.03;;;3.76;74.14
77587;BME280;66744;49.716;17.158;2023-12-07T13:17:01;99417.47;;;3.75;74.25
77587;BME280;66744;49.716;17.158;2023-12-07T13:20:06;99421.00;;;3.79;73.59
77587;BME280;66744;49.716;17.158;2023-12-07T13:23:09;99420.59;;;3.77;73.32
77587;BME280;66744;49.716;17.158;2023-12-07T13:26:10;99421.38;;;3.78;73.26
77587;BME280;66744;49.716;17.158;2023-12-07T13:29:12;99425.25;;;3.77;73.57
77587;BME280;66744;49.716;17.158;2023-12-07T13:32:13;99424.09;;;3.78;73.34
77587;BME280;66744;49.716;17.158;2023-12-07T13:35:15;99419.44;;;3.78;73.32
77587;BME280;66744;49.716;17.158;2023-12-07T13:38:16;99419.81;;;3.77;73.59
77587;BME280;66744;49.716;17.158;2023-12-07T13:41:21;99431.06;;;3.75;73.47
77587;BME280;66744;49.716;17.158;2023-12-07T13:44:23;99432.97;;;3.71;73.53
77587;BME280;66744;49.716;17.158;2023-12-07T13:47:26;99440.75;;;3.73;73.63
77587;BME280;66744;49.716;17.158;2023-12-07T13:50:32;99446.56;;;3.71;73.65
77587;BME280;66744;49.716;17.158;2023-12-07T13:53:33;99441.91;;;3.72;72.99
77587;BME280;66744;49.716;17.158;2023-12-07T13:56:35;99447.34;;;3.72;73.47
77587;BME280;66744;49.716;17.158;2023-12-07T13:59:36;99439.94;;;3.69;74.02
77587;BME280;66744;49.716;17.158;2023-12-07T14:02:38;99443.84;;;3.68;73.82
77587;BME280;66744;49.716;17.158;2023-12-07T14:05:40;99450.03;;;3.68;73.73
77587;BME280;66744;49.716;17.158;2023-12-07T14:08:42;99453.13;;;3.67;73.72
77587;BME280;66744;49.716;17.158;2023-12-07T14:11:43;99455.84;;;3.67;73.54
77587;BME280;66744;49.716;17.158;2023-12-07T14:14:46;99460.09;;;3.64;73.56
77587;BME280;66744;49.716;17.158;2023-12-07T14:17:47;99460.47;;;3.63;73.98
77587;BME280;66744;49.716;17.158;2023-12-07T14:20:49;99463.97;;;3.63;73.94
77587;BME280;66744;49.716;17.158;2023-12-07T14:23:50;99464.75;;;3.64;73.76
77587;BME280;66744;49.716;17.158;2023-12-07T14:26:56;99463.97;;;3.63;74.36
77587;BME280;66744;49.716;17.158;2023-12-07T14:29:57;99465.13;;;3.59;73.90
77587;BME280;66744;49.716;17.158;2023-12-07T14:32:59;99466.25;;;3.58;74.49
77587;BME280;66744;49.716;17.158;2023-12-07T14:36:00;99462.00;;;3.60;73.94
77587;BME280;66744;49.716;17.158;2023-12-07T14:39:03;99467.44;;;3.60;73.82
77587;BME280;66744;49.716;17.158;2023-12-07T14:42:07;99466.66;;;3.60;74.00
77587;BME280;66744;49.716;17.158;2023-12-07T14:45:09;99459.69;;;3.59;73.75
77587;BME280;66744;49.716;17.158;2023-12-07T14:48:11;99472.47;;;3.58;74.02
77587;BME280;66744;49.716;17.158;2023-12-07T14:51:20;99467.84;;;3.59;73.90
77587;BME280;66744;49.716;17.158;2023-12-07T14:54:22;99469.75;;;3.58;74.11
77587;BME280;66744;49.716;17.158;2023-12-07T14:57:23;99470.16;;;3.60;73.81
77587;BME280;66744;49.716;17.158;2023-12-07T15:00:24;99464.34;;;3.58;74.24
77587;BME280;66744;49.716;17.158;2023-12-07T15:03:26;99471.31;;;3.56;73.90
77587;BME280;66744;49.716;17.158;2023-12-07T15:06:28;99471.28;;;3.52;73.51
77587;BME280;66744;49.716;17.158;2023-12-07T15:09:29;99468.56;;;3.52;73.76
77587;BME280;66744;49.716;17.158;2023-12-07T15:12:31;99470.47;;;3.52;72.99
77587;BME280;66744;49.716;17.158;2023-12-07T15:15:33;99479.03;;;3.54;73.80
77587;BME280;66744;49.716;17.158;2023-12-07T15:18:35;99480.59;;;3.55;73.74
77587;BME280;66744;49.716;17.158;2023-12-07T15:21:36;99485.25;;;3.54;73.80
77587;BME280;66744;49.716;17.158;2023-12-07T15:24:38;99481.34;;;3.52;73.79
77587;BME280;66744;49.716;17.158;2023-12-07T15:27:40;99488.34;;;3.53;73.78
77587;BME280;66744;49.716;17.158;2023-12-07T15:30:42;99499.19;;;3.49;73.75
77587;BME280;66744;49.716;17.158;2023-12-07T15:33:44;99492.19;;;3.48;73.86
77587;BME280;66744;49.716;17.158;2023-12-07T15:36:46;99491.78;;;3.46;73.92
77587;BME280;66744;49.716;17.158;2023-12-07T15:39:47;99491.00;;;3.46;73.97
77587;BME280;66744;49.716;17.158;2023-12-07T15:42:48;99490.22;;;3.45;74.68
77587;BME280;66744;49.716;17.158;2023-12-07T15:45:50;99494.84;;;3.45;74.00
77587;BME280;66744;49.716;17.158;2023-12-07T15:48:51;99501.06;;;3.45;74.09
77587;BME280;66744;49.716;17.158;2023-12-07T15:51:52;99501.88;;;3.46;73.93
77587;BME280;66744;49.716;17.158;2023-12-07T15:54:54;99498.00;;;3.47;74.13
77587;BME280;66744;49.716;17.158;2023-12-07T15:57:56;99501.13;;;3.49;74.28
77587;BME280;66744;49.716;17.158;2023-12-07T16:00:57;99511.94;;;3.45;74.33
77587;BME280;66744;49.716;17.158;2023-12-07T16:04:00;99510.41;;;3.44;73.96
77587;BME280;66744;49.716;17.158;2023-12-07T16:07:02;99507.25;;;3.42;74.66
77587;BME280;66744;49.716;17.158;2023-12-07T16:10:08;99515.84;;;3.44;74.10
77587;BME280;66744;49.716;17.158;2023-12-07T16:13:10;99520.88;;;3.46;74.33
77587;BME280;66744;49.716;17.158;2023-12-07T16:16:11;99514.63;;;3.42;74.39
77587;BME280;66744;49.716;17.158;2023-12-07T16:19:12;99516.16;;;3.35;74.54